createdAt,value
2023-05-14T00:01:00.188Z,13.45
2023-05-14T00:02:02.202Z,16.98
2023-05-14T00:03:04.538Z,13.88
2023-05-14T00:04:06.520Z,12.52
2023-05-14T00:05:10.064Z,16.75
2023-05-14T00:06:12.022Z,13.55
2023-05-14T00:07:13.868Z,12.10
2023-05-14T00:08:15.696Z,13.70
2023-05-14T00:09:17.477Z,28.35
2023-05-14T00:10:21.884Z,63.70
2023-05-14T00:11:24.197Z,15.18
2023-05-14T00:12:29.997Z,16.60
2023-05-14T00:13:31.750Z,36.30
2023-05-14T00:14:33.634Z,25.02
2023-05-14T00:15:35.434Z,16.58
2023-05-14T00:16:37.273Z,19.50
2023-05-14T00:17:39.146Z,14.30
2023-05-14T00:18:41.033Z,14.95
2023-05-14T00:19:42.887Z,14.07
2023-05-14T00:20:44.665Z,12.20
2023-05-14T00:21:48.535Z,11.82
2023-05-14T00:22:50.374Z,13.85
2023-05-14T00:23:52.121Z,12.18
2023-05-14T00:24:53.868Z,12.90
2023-05-14T00:25:55.599Z,15.07
2023-05-14T00:26:57.317Z,11.90
2023-05-14T00:27:59.018Z,14.20
2023-05-14T00:29:00.866Z,19.10
2023-05-14T00:30:05.634Z,13.77
2023-05-14T00:31:07.562Z,14.77
2023-05-14T00:32:09.320Z,16.45
2023-05-14T00:33:11.109Z,12.02
2023-05-14T00:34:12.934Z,13.15
2023-05-14T00:35:14.689Z,14.85
2023-05-14T00:36:16.512Z,10.75
2023-05-14T00:37:18.270Z,13.45
2023-05-14T00:38:20.030Z,11.90
2023-05-14T00:39:21.836Z,12.32
2023-05-14T00:40:28.271Z,11.85
2023-05-14T00:41:30.007Z,16.85
2023-05-14T00:42:31.775Z,15.52
2023-05-14T00:43:33.531Z,10.85
2023-05-14T00:44:35.997Z,10.57
2023-05-14T00:45:39.115Z,10.75
2023-05-14T00:46:41.285Z,15.63
2023-05-14T00:47:44.142Z,11.90
2023-05-14T00:48:46.401Z,12.07
2023-05-14T00:49:48.350Z,10.63
2023-05-14T00:50:51.898Z,14.15
2023-05-14T00:51:54.154Z,11.85
2023-05-14T00:52:56.009Z,12.68
2023-05-14T00:53:57.917Z,10.60
2023-05-14T00:55:03.122Z,15.43
2023-05-14T00:56:05.999Z,11.68
2023-05-14T00:57:08.507Z,10.73
2023-05-14T00:58:13.267Z,10.88
2023-05-14T00:59:14.999Z,10.57
2023-05-14T01:00:17.514Z,11.15
2023-05-14T01:01:19.353Z,15.18
2023-05-14T01:02:21.306Z,13.80
2023-05-14T01:03:23.255Z,52.70
2023-05-14T01:04:25.361Z,11.13
2023-05-14T01:05:55.589Z,18.85
2023-05-14T01:07:46.314Z,10.73
2023-05-14T01:09:20.172Z,14.02
2023-05-14T01:10:37.217Z,13.73
2023-05-14T01:12:32.102Z,14.77
2023-05-14T01:14:19.525Z,12.70
2023-05-14T01:15:33.380Z,32.45
2023-05-14T01:16:38.991Z,44.55
2023-05-14T01:17:59.085Z,16.27
2023-05-14T01:19:02.726Z,9.30
2023-05-14T01:20:05.905Z,11.85
2023-05-14T01:21:44.592Z,10.20
2023-05-14T01:22:46.362Z,11.00
2023-05-14T01:23:48.138Z,9.63
2023-05-14T01:24:49.894Z,9.90
2023-05-14T01:25:51.668Z,10.52
2023-05-14T01:27:16.062Z,10.65
2023-05-14T01:28:20.450Z,12.38
2023-05-14T01:29:26.099Z,9.38
2023-05-14T01:30:33.448Z,11.35
2023-05-14T01:31:40.580Z,9.63
2023-05-14T01:32:51.565Z,10.10
2023-05-14T01:33:58.633Z,12.13
2023-05-14T01:35:02.604Z,12.90
2023-05-14T01:36:05.692Z,10.65
2023-05-14T01:37:10.894Z,10.68
2023-05-14T01:38:17.956Z,9.80
2023-05-14T01:39:21.226Z,10.10
2023-05-14T01:40:24.738Z,9.07
2023-05-14T01:41:27.641Z,9.30
2023-05-14T01:42:29.923Z,10.43
2023-05-14T01:43:32.207Z,10.05
2023-05-14T01:44:34.519Z,9.30
2023-05-14T01:45:37.224Z,9.00
2023-05-14T01:46:39.291Z,9.20
2023-05-14T01:47:41.127Z,9.18
2023-05-14T01:48:42.924Z,9.57
2023-05-14T01:49:44.695Z,9.80
2023-05-14T01:50:46.496Z,9.55
2023-05-14T01:51:48.252Z,10.25
2023-05-14T01:52:51.188Z,11.02
2023-05-14T01:53:53.104Z,10.85
2023-05-14T01:54:54.827Z,9.20
2023-05-14T01:55:56.577Z,10.15
2023-05-14T01:56:58.291Z,11.43
2023-05-14T01:58:00.013Z,9.80
2023-05-14T01:59:01.719Z,10.63
2023-05-14T02:00:04.310Z,11.50
2023-05-14T02:01:06.141Z,10.40
2023-05-14T02:02:08.061Z,14.60
2023-05-14T02:03:09.811Z,10.63
2023-05-14T02:04:11.612Z,9.82
2023-05-14T02:05:13.881Z,11.48
2023-05-14T02:06:15.707Z,10.60
2023-05-14T02:07:17.486Z,9.65
2023-05-14T02:08:19.245Z,9.65
2023-05-14T02:09:21.128Z,10.50
2023-05-14T02:10:23.103Z,13.15
2023-05-14T02:11:24.959Z,10.18
2023-05-14T02:12:26.712Z,10.43
2023-05-14T02:13:28.442Z,10.10
2023-05-14T02:14:30.254Z,9.80
2023-05-14T02:15:31.999Z,11.90
2023-05-14T02:16:33.884Z,10.20
2023-05-14T02:17:35.796Z,10.13
2023-05-14T02:18:37.578Z,10.85
2023-05-14T02:19:39.308Z,9.52
2023-05-14T02:20:41.019Z,11.90
2023-05-14T02:21:42.754Z,10.20
2023-05-14T02:22:46.077Z,10.88
2023-05-14T02:23:49.415Z,11.10
2023-05-14T02:24:51.400Z,11.10
2023-05-14T02:25:53.178Z,11.63
2023-05-14T02:26:55.030Z,9.45
2023-05-14T02:27:56.758Z,11.20
2023-05-14T02:28:58.578Z,18.45
2023-05-14T02:30:01.092Z,11.73
2023-05-14T02:31:02.945Z,10.70
2023-05-14T02:32:05.627Z,9.68
2023-05-14T02:33:07.554Z,14.60
2023-05-14T02:34:10.383Z,16.45
2023-05-14T02:35:12.145Z,8.98
2023-05-14T02:36:13.986Z,11.00
2023-05-14T02:37:15.952Z,11.75
2023-05-14T02:38:17.828Z,10.20
2023-05-14T02:39:19.565Z,10.13
2023-05-14T02:40:21.525Z,9.75
2023-05-14T02:41:23.366Z,9.98
2023-05-14T02:42:25.108Z,13.30
2023-05-14T02:43:26.922Z,9.82
2023-05-14T02:44:28.699Z,10.23
2023-05-14T02:45:30.494Z,10.15
2023-05-14T02:46:32.804Z,12.57
2023-05-14T02:47:37.526Z,10.13
2023-05-14T02:48:39.809Z,9.65
2023-05-14T02:49:41.595Z,9.65
2023-05-14T02:50:43.358Z,8.65
2023-05-14T02:51:45.169Z,9.20
2023-05-14T02:52:46.991Z,10.63
2023-05-14T02:53:49.247Z,8.93
2023-05-14T02:54:50.975Z,11.02
2023-05-14T02:55:52.736Z,9.85
2023-05-14T02:56:54.520Z,8.48
2023-05-14T02:57:56.778Z,8.73
2023-05-14T02:58:58.553Z,12.02
2023-05-14T03:00:00.650Z,9.38
2023-05-14T03:01:02.946Z,8.60
2023-05-14T03:02:05.562Z,9.77
2023-05-14T03:03:07.717Z,10.40
2023-05-14T03:04:10.073Z,8.43
2023-05-14T03:05:11.817Z,7.65
2023-05-14T03:06:13.546Z,9.60
2023-05-14T03:07:15.276Z,9.82
2023-05-14T03:08:16.987Z,9.15
2023-05-14T03:09:18.728Z,10.10
2023-05-14T03:10:20.845Z,11.38
2023-05-14T03:11:22.826Z,8.55
2023-05-14T03:12:24.634Z,9.00
2023-05-14T03:13:26.483Z,10.43
2023-05-14T03:14:28.273Z,12.38
2023-05-14T03:15:30.452Z,9.82
2023-05-14T03:16:32.236Z,8.90
2023-05-14T03:17:34.093Z,8.77
2023-05-14T03:18:36.627Z,8.82
2023-05-14T03:19:38.515Z,9.73
2023-05-14T03:20:40.873Z,11.23
2023-05-14T03:21:42.946Z,8.13
2023-05-14T03:22:44.858Z,8.00
2023-05-14T03:23:46.611Z,13.90
2023-05-14T03:24:48.370Z,18.70
2023-05-14T03:25:50.147Z,13.77
2023-05-14T03:26:51.911Z,7.10
2023-05-14T03:27:53.663Z,8.77
2023-05-14T03:28:55.550Z,9.23
2023-05-14T03:29:57.250Z,10.50
2023-05-14T03:30:59.138Z,7.80
2023-05-14T03:32:01.167Z,7.28
2023-05-14T03:33:03.133Z,20.10
2023-05-14T03:34:04.913Z,6.97
2023-05-14T03:35:07.920Z,10.77
2023-05-14T03:36:09.890Z,8.10
2023-05-14T03:37:11.797Z,7.60
2023-05-14T03:38:13.581Z,7.88
2023-05-14T03:39:19.584Z,8.23
2023-05-14T03:40:21.842Z,10.07
2023-05-14T03:41:23.748Z,7.10
2023-05-14T03:42:25.571Z,12.93
2023-05-14T03:43:27.392Z,19.45
2023-05-14T03:44:29.169Z,9.40
2023-05-14T03:45:32.196Z,10.18
2023-05-14T03:46:33.976Z,9.05
2023-05-14T03:47:35.785Z,8.13
2023-05-14T03:48:37.586Z,9.00
2023-05-14T03:49:39.376Z,7.55
2023-05-14T03:50:41.320Z,9.77
2023-05-14T03:51:43.257Z,7.13
2023-05-14T03:52:45.828Z,8.68
2023-05-14T03:53:47.754Z,11.43
2023-05-14T03:54:49.591Z,9.70
2023-05-14T03:55:51.436Z,8.52
2023-05-14T03:56:53.206Z,11.85
2023-05-14T03:57:54.935Z,7.03
2023-05-14T03:58:56.650Z,8.52
2023-05-14T03:59:58.596Z,8.48
2023-05-14T04:01:00.614Z,9.85
2023-05-14T04:02:02.434Z,8.82
2023-05-14T04:03:04.412Z,7.45
2023-05-14T04:04:06.682Z,8.63
2023-05-14T04:05:09.173Z,7.65
2023-05-14T04:06:10.947Z,11.98
2023-05-14T04:07:12.702Z,7.97
2023-05-14T04:08:14.446Z,8.70
2023-05-14T04:09:16.297Z,7.38
2023-05-14T04:10:18.369Z,7.38
2023-05-14T04:11:21.293Z,7.25
2023-05-14T04:12:23.102Z,8.70
2023-05-14T04:13:24.962Z,12.88
2023-05-14T04:14:26.715Z,7.30
2023-05-14T04:15:28.512Z,7.32
2023-05-14T04:16:30.330Z,7.75
2023-05-14T04:17:32.986Z,9.40
2023-05-14T04:18:35.756Z,9.98
2023-05-14T04:19:37.568Z,8.00
2023-05-14T04:20:39.344Z,6.78
2023-05-14T04:21:41.201Z,7.93
2023-05-14T04:22:42.944Z,7.38
2023-05-14T04:23:44.786Z,7.10
2023-05-14T04:24:46.525Z,7.88
2023-05-14T04:25:48.292Z,7.30
2023-05-14T04:26:50.069Z,7.20
2023-05-14T04:27:51.847Z,8.93
2023-05-14T04:28:53.583Z,7.10
2023-05-14T04:29:55.299Z,9.20
2023-05-14T04:30:57.072Z,7.53
2023-05-14T04:31:58.904Z,7.07
2023-05-14T04:33:00.755Z,9.52
2023-05-14T04:34:02.543Z,9.25
2023-05-14T04:35:05.924Z,7.95
2023-05-14T04:36:08.259Z,9.85
2023-05-14T04:37:10.084Z,7.82
2023-05-14T04:38:13.990Z,10.15
2023-05-14T04:39:15.740Z,7.13
2023-05-14T04:40:17.719Z,6.80
2023-05-14T04:41:19.467Z,6.95
2023-05-14T04:42:21.415Z,6.88
2023-05-14T04:43:23.153Z,6.68
2023-05-14T04:44:24.895Z,6.65
2023-05-14T04:45:26.683Z,7.60
2023-05-14T04:46:28.970Z,7.30
2023-05-14T04:47:31.739Z,9.85
2023-05-14T04:48:33.463Z,7.63
2023-05-14T04:49:35.270Z,7.10
2023-05-14T04:50:37.026Z,6.95
2023-05-14T04:51:38.815Z,6.45
2023-05-14T04:52:40.664Z,7.65
2023-05-14T04:53:42.435Z,6.93
2023-05-14T04:54:44.306Z,7.00
2023-05-14T04:55:46.124Z,6.75
2023-05-14T04:56:47.890Z,5.20
2023-05-14T04:57:49.628Z,6.45
2023-05-14T04:58:51.339Z,6.63
2023-05-14T04:59:53.101Z,6.78
2023-05-14T05:00:54.937Z,7.07
2023-05-14T05:01:56.853Z,6.85
2023-05-14T05:02:58.706Z,7.40
2023-05-14T05:04:00.812Z,7.28
2023-05-14T05:05:04.181Z,6.68
2023-05-14T05:06:06.711Z,5.15
2023-05-14T05:07:08.569Z,7.18
2023-05-14T05:08:11.350Z,5.72
2023-05-14T05:09:14.160Z,7.63
2023-05-14T05:10:16.018Z,5.38
2023-05-14T05:11:17.900Z,5.13
2023-05-14T05:12:19.675Z,6.93
2023-05-14T05:13:21.477Z,5.28
2023-05-14T05:14:23.304Z,5.60
2023-05-14T05:15:26.573Z,4.93
2023-05-14T05:16:28.692Z,4.55
2023-05-14T05:17:30.888Z,5.55
2023-05-14T05:18:32.812Z,6.82
2023-05-14T05:19:43.272Z,6.53
2023-05-14T05:20:46.180Z,6.63
2023-05-14T05:21:48.011Z,6.50
2023-05-14T05:22:49.718Z,5.57
2023-05-14T05:23:51.489Z,4.32
2023-05-14T05:24:53.381Z,4.95
2023-05-14T05:25:55.253Z,4.90
2023-05-14T05:26:56.989Z,4.88
2023-05-14T05:27:58.698Z,4.32
2023-05-14T05:29:00.815Z,4.78
2023-05-14T05:30:03.892Z,5.38
2023-05-14T05:31:05.765Z,5.30
2023-05-14T05:32:08.175Z,4.65
2023-05-14T05:33:09.975Z,4.38
2023-05-14T05:34:11.879Z,5.38
2023-05-14T05:35:13.662Z,5.57
2023-05-14T05:36:15.486Z,4.70
2023-05-14T05:37:17.422Z,5.38
2023-05-14T05:38:19.202Z,5.35
2023-05-14T05:39:20.996Z,5.20
2023-05-14T05:40:22.956Z,5.38
2023-05-14T05:41:25.001Z,4.97
2023-05-14T05:42:26.700Z,5.10
2023-05-14T05:43:28.565Z,4.43
2023-05-14T05:44:30.657Z,5.28
2023-05-14T05:45:32.559Z,9.27
2023-05-14T05:46:34.405Z,4.45
2023-05-14T05:47:36.290Z,5.07
2023-05-14T05:48:38.018Z,4.28
2023-05-14T05:49:39.771Z,4.93
2023-05-14T05:50:41.527Z,7.38
2023-05-14T05:51:43.250Z,4.55
2023-05-14T05:52:45.250Z,4.90
2023-05-14T05:53:47.021Z,6.65
2023-05-14T05:54:48.850Z,5.10
2023-05-14T05:55:53.606Z,4.38
2023-05-14T05:56:55.452Z,5.40
2023-05-14T05:57:57.159Z,5.28
2023-05-14T05:58:58.908Z,5.15
2023-05-14T06:00:01.023Z,5.20
2023-05-14T06:01:02.894Z,4.32
2023-05-14T06:02:05.080Z,4.60
2023-05-14T06:03:07.157Z,5.18
2023-05-14T06:04:09.957Z,5.03
2023-05-14T06:05:12.200Z,5.60
2023-05-14T06:06:15.469Z,8.77
2023-05-14T06:07:17.183Z,8.95
2023-05-14T06:08:19.505Z,4.55
2023-05-14T06:09:21.356Z,5.72
2023-05-14T06:10:23.291Z,5.72
2023-05-14T06:11:25.325Z,4.88
2023-05-14T06:12:27.215Z,5.85
2023-05-14T06:13:29.027Z,4.47
2023-05-14T06:14:30.789Z,4.78
2023-05-14T06:15:32.581Z,10.13
2023-05-14T06:16:34.411Z,5.10
2023-05-14T06:17:36.216Z,5.10
2023-05-14T06:18:37.984Z,4.22
2023-05-14T06:19:39.827Z,9.88
2023-05-14T06:20:41.665Z,5.82
2023-05-14T06:21:43.414Z,4.57
2023-05-14T06:22:45.221Z,5.72
2023-05-14T06:23:47.199Z,9.30
2023-05-14T06:24:49.065Z,5.50
2023-05-14T06:25:51.073Z,5.65
2023-05-14T06:26:52.795Z,4.80
2023-05-14T06:27:54.530Z,4.82
2023-05-14T06:28:56.476Z,4.07
2023-05-14T06:29:58.295Z,5.55
2023-05-14T06:31:00.152Z,5.00
2023-05-14T06:32:04.357Z,4.30
2023-05-14T06:33:06.178Z,4.10
2023-05-14T06:34:08.082Z,5.10
2023-05-14T06:35:10.458Z,4.72
2023-05-14T06:36:12.241Z,6.07
2023-05-14T06:37:14.009Z,4.68
2023-05-14T06:38:15.733Z,5.80
2023-05-14T06:39:17.464Z,4.45
2023-05-14T06:40:19.485Z,4.90
2023-05-14T06:41:21.265Z,4.25
2023-05-14T06:42:23.014Z,4.25
2023-05-14T06:43:24.848Z,4.10
2023-05-14T06:44:27.738Z,4.55
2023-05-14T06:45:32.376Z,4.03
2023-05-14T06:46:34.935Z,4.55
2023-05-14T06:47:36.693Z,4.88
2023-05-14T06:48:38.427Z,4.40
2023-05-14T06:49:40.274Z,4.57
2023-05-14T06:50:42.005Z,4.22
2023-05-14T06:51:43.785Z,4.90
2023-05-14T06:52:45.622Z,5.07
2023-05-14T06:53:48.808Z,5.45
2023-05-14T06:54:50.631Z,4.13
2023-05-14T06:55:52.377Z,3.45
2023-05-14T06:56:54.752Z,6.00
2023-05-14T06:57:56.512Z,4.40
2023-05-14T06:58:58.223Z,4.57
2023-05-14T07:00:00.092Z,4.35
2023-05-14T07:01:01.958Z,4.13
2023-05-14T07:02:03.735Z,4.43
2023-05-14T07:03:05.935Z,4.38
2023-05-14T07:04:07.912Z,5.70
2023-05-14T07:05:11.240Z,3.92
2023-05-14T07:06:13.819Z,3.95
2023-05-14T07:07:18.200Z,3.58
2023-05-14T07:08:19.906Z,7.65
2023-05-14T07:09:21.993Z,4.80
2023-05-14T07:10:24.990Z,4.40
2023-05-14T07:11:26.844Z,4.50
2023-05-14T07:12:28.601Z,3.92
2023-05-14T07:13:30.345Z,6.13
2023-05-14T07:14:32.118Z,4.50
2023-05-14T07:15:34.254Z,6.22
2023-05-14T07:16:36.662Z,5.45
2023-05-14T07:17:38.406Z,4.15
2023-05-14T07:18:40.347Z,6.75
2023-05-14T07:19:42.154Z,4.18
2023-05-14T07:20:43.904Z,4.85
2023-05-14T07:21:45.619Z,5.78
2023-05-14T07:22:47.822Z,4.28
2023-05-14T07:23:49.566Z,3.72
2023-05-14T07:24:51.347Z,5.10
2023-05-14T07:25:53.139Z,7.10
2023-05-14T07:26:57.128Z,4.47
2023-05-14T07:27:58.883Z,4.20
2023-05-14T07:29:00.697Z,3.85
2023-05-14T07:30:02.943Z,4.28
2023-05-14T07:31:08.901Z,6.82
2023-05-14T07:32:11.798Z,3.60
2023-05-14T07:33:15.257Z,4.00
2023-05-14T07:34:17.004Z,8.38
2023-05-14T07:35:18.738Z,8.13
2023-05-14T07:36:20.578Z,5.05
2023-05-14T07:37:24.199Z,3.90
2023-05-14T07:38:26.092Z,3.50
2023-05-14T07:39:27.918Z,4.72
2023-05-14T07:40:29.634Z,5.18
2023-05-14T07:41:31.356Z,3.78
2023-05-14T07:42:36.409Z,5.95
2023-05-14T07:43:40.422Z,4.10
2023-05-14T07:44:42.178Z,4.22
2023-05-14T07:45:45.118Z,17.75
2023-05-14T07:46:47.647Z,5.45
2023-05-14T07:47:52.511Z,7.15
2023-05-14T07:48:54.547Z,6.38
2023-05-14T07:49:57.593Z,3.78
2023-05-14T07:50:59.919Z,4.75
2023-05-14T07:52:01.695Z,5.32
2023-05-14T07:53:03.614Z,5.50
2023-05-14T07:54:05.637Z,3.90
2023-05-14T07:55:08.401Z,7.53
2023-05-14T07:56:10.455Z,3.50
2023-05-14T07:57:12.226Z,5.85
2023-05-14T07:58:14.121Z,3.63
2023-05-14T07:59:15.876Z,3.90
2023-05-14T08:00:18.013Z,3.90
2023-05-14T08:01:19.782Z,5.20
2023-05-14T08:02:21.660Z,4.35
2023-05-14T08:03:23.585Z,3.88
2023-05-14T08:04:26.339Z,4.43
2023-05-14T08:05:28.125Z,3.55
2023-05-14T08:06:29.932Z,3.33
2023-05-14T08:07:31.703Z,3.20
2023-05-14T08:08:33.613Z,3.63
2023-05-14T08:09:35.596Z,3.78
2023-05-14T08:10:37.390Z,3.65
2023-05-14T08:11:39.281Z,3.47
2023-05-14T08:12:42.648Z,5.28
2023-05-14T08:13:44.410Z,4.55
2023-05-14T08:14:46.248Z,8.80
2023-05-14T08:15:48.075Z,4.03
2023-05-14T08:16:50.016Z,4.40
2023-05-14T08:17:51.903Z,3.88
2023-05-14T08:18:53.747Z,3.55
2023-05-14T08:19:55.617Z,5.70
2023-05-14T08:20:57.877Z,3.60
2023-05-14T08:21:59.661Z,3.75
2023-05-14T08:23:01.510Z,4.95
2023-05-14T08:24:03.582Z,3.53
2023-05-14T08:25:06.434Z,3.70
2023-05-14T08:26:08.567Z,3.50
2023-05-14T08:27:10.403Z,7.10
2023-05-14T08:28:12.195Z,3.65
2023-05-14T08:29:16.119Z,3.80
2023-05-14T08:30:18.415Z,3.70
2023-05-14T08:31:20.395Z,9.52
2023-05-14T08:32:24.027Z,6.03
2023-05-14T08:33:26.141Z,4.25
2023-05-14T08:34:28.628Z,5.60
2023-05-14T08:35:30.460Z,5.25
2023-05-14T08:36:32.810Z,3.67
2023-05-14T08:37:34.660Z,4.85
2023-05-14T08:38:36.412Z,4.53
2023-05-14T08:39:38.142Z,4.65
2023-05-14T08:40:40.227Z,3.38
2023-05-14T08:41:42.394Z,2.92
2023-05-14T08:42:45.044Z,3.30
2023-05-14T08:44:14.135Z,3.60
2023-05-14T08:45:33.720Z,3.92
2023-05-14T08:46:38.886Z,2.92
2023-05-14T08:47:40.765Z,2.80
2023-05-14T08:48:48.051Z,7.13
2023-05-14T08:50:04.513Z,3.63
2023-05-14T08:51:08.964Z,3.45
2023-05-14T08:52:12.308Z,4.68
2023-05-14T08:53:14.544Z,3.30
2023-05-14T08:54:17.857Z,6.60
2023-05-14T08:55:20.531Z,3.20
2023-05-14T08:56:24.305Z,2.95
2023-05-14T08:57:28.388Z,2.95
2023-05-14T08:58:30.419Z,2.80
2023-05-14T08:59:32.375Z,2.65
2023-05-14T09:00:34.393Z,3.20
2023-05-14T09:01:39.726Z,2.83
2023-05-14T09:02:44.356Z,3.40
2023-05-14T09:03:47.909Z,3.45
2023-05-14T09:04:56.714Z,6.25
2023-05-14T09:06:00.328Z,3.15
2023-05-14T09:07:03.981Z,3.17
2023-05-14T09:08:05.922Z,2.85
2023-05-14T09:09:07.880Z,3.13
2023-05-14T09:10:11.322Z,7.25
2023-05-14T09:11:13.183Z,3.38
2023-05-14T09:12:15.041Z,3.47
2023-05-14T09:13:16.813Z,3.28
2023-05-14T09:14:19.761Z,3.50
2023-05-14T09:15:21.887Z,5.60
2023-05-14T09:16:26.758Z,3.53
2023-05-14T09:17:28.755Z,2.60
2023-05-14T09:18:30.742Z,2.55
2023-05-14T09:19:32.895Z,6.28
2023-05-14T09:20:34.864Z,10.65
2023-05-14T09:21:37.405Z,4.00
2023-05-14T09:22:39.833Z,2.80
2023-05-14T09:23:45.324Z,2.50
2023-05-14T09:25:01.546Z,2.95
2023-05-14T09:26:06.293Z,2.63
2023-05-14T09:27:10.941Z,2.63
2023-05-14T09:28:12.784Z,4.22
2023-05-14T09:29:14.533Z,2.70
2023-05-14T09:30:16.496Z,3.30
2023-05-14T09:31:18.257Z,3.25
2023-05-14T09:32:20.545Z,2.80
2023-05-14T09:33:29.441Z,4.45
2023-05-14T09:34:37.972Z,3.40
2023-05-14T09:35:41.391Z,3.30
2023-05-14T09:36:43.148Z,2.80
2023-05-14T09:37:55.578Z,3.33
2023-05-14T09:38:57.893Z,3.05
2023-05-14T09:40:11.733Z,3.03
2023-05-14T09:41:13.526Z,4.50
2023-05-14T09:42:16.598Z,3.47
2023-05-14T09:43:18.416Z,5.38
2023-05-14T09:44:22.575Z,2.53
2023-05-14T09:45:24.339Z,4.68
2023-05-14T09:46:30.100Z,6.57
2023-05-14T09:47:32.799Z,2.92
2023-05-14T09:48:34.818Z,2.50
2023-05-14T09:49:36.603Z,2.80
2023-05-14T09:50:46.718Z,2.85
2023-05-14T09:51:51.953Z,5.18
2023-05-14T09:52:56.111Z,2.42
2023-05-14T09:53:57.859Z,3.28
2023-05-14T09:55:01.433Z,3.25
2023-05-14T09:56:03.424Z,3.20
2023-05-14T09:57:05.822Z,6.00
2023-05-14T09:58:07.532Z,3.35
2023-05-14T09:59:09.377Z,5.15
2023-05-14T10:00:12.863Z,2.55
2023-05-14T10:01:20.266Z,3.55
2023-05-14T10:02:30.011Z,2.50
2023-05-14T10:03:32.921Z,3.38
2023-05-14T10:04:37.159Z,3.20
2023-05-14T10:05:42.471Z,2.90
2023-05-14T10:06:53.043Z,4.85
2023-05-14T10:08:01.524Z,6.15
2023-05-14T10:09:10.045Z,6.15
2023-05-14T10:10:19.884Z,8.45
2023-05-14T10:11:28.306Z,3.33
2023-05-14T10:12:36.364Z,3.28
2023-05-14T10:13:49.972Z,5.20
2023-05-14T10:14:57.865Z,2.67
2023-05-14T10:16:16.564Z,4.97
2023-05-14T10:17:22.050Z,3.65
2023-05-14T10:18:25.192Z,2.95
2023-05-14T10:19:32.371Z,3.22
2023-05-14T10:20:36.647Z,3.83
2023-05-14T10:21:44.435Z,4.00
2023-05-14T10:22:46.675Z,7.40
2023-05-14T10:23:51.114Z,2.92
2023-05-14T10:24:54.963Z,3.70
2023-05-14T10:25:59.419Z,6.70
2023-05-14T10:27:02.735Z,4.95
2023-05-14T10:28:06.135Z,3.75
2023-05-14T10:29:11.259Z,4.03
2023-05-14T10:30:13.441Z,4.43
2023-05-14T10:31:15.690Z,3.40
2023-05-14T10:32:22.534Z,5.35
2023-05-14T10:33:24.244Z,3.55
2023-05-14T10:34:45.882Z,3.08
2023-05-14T10:36:04.460Z,2.75
2023-05-14T10:37:18.603Z,3.05
2023-05-14T10:38:27.254Z,4.05
2023-05-14T10:39:52.288Z,3.42
2023-05-14T10:41:06.175Z,3.47
2023-05-14T10:42:13.108Z,3.55
2023-05-14T10:43:17.582Z,2.60
2023-05-14T10:44:21.903Z,4.90
2023-05-14T10:45:23.827Z,2.92
2023-05-14T10:46:26.076Z,3.30
2023-05-14T10:47:32.891Z,3.60
2023-05-14T10:48:37.856Z,3.35
2023-05-14T10:49:43.364Z,6.70
2023-05-14T10:50:51.044Z,3.83
2023-05-14T10:51:54.217Z,3.50
2023-05-14T10:52:57.097Z,3.95
2023-05-14T10:54:01.612Z,3.88
2023-05-14T10:55:10.755Z,3.75
2023-05-14T10:56:14.801Z,3.47
2023-05-14T10:57:19.926Z,5.00
2023-05-14T10:58:22.435Z,4.97
2023-05-14T10:59:28.300Z,2.92
2023-05-14T11:00:35.330Z,3.20
2023-05-14T11:01:40.130Z,6.25
2023-05-14T11:02:44.903Z,6.25
2023-05-14T11:03:47.305Z,4.70
2023-05-14T11:05:19.332Z,3.05
2023-05-14T11:06:21.379Z,4.90
2023-05-14T11:07:31.099Z,8.30
2023-05-14T11:08:33.864Z,4.32
2023-05-14T11:09:37.640Z,3.20
2023-05-14T11:10:41.888Z,4.35
2023-05-14T11:11:43.968Z,2.75
2023-05-14T11:12:51.389Z,6.20
2023-05-14T11:13:54.075Z,4.43
2023-05-14T11:15:02.162Z,5.22
2023-05-14T11:16:18.991Z,3.05
2023-05-14T11:17:30.186Z,3.90
2023-05-14T11:18:38.450Z,4.90
2023-05-14T11:19:44.914Z,3.40
2023-05-14T11:20:46.875Z,3.00
2023-05-14T11:21:48.724Z,3.83
2023-05-14T11:22:53.535Z,3.25
2023-05-14T11:23:57.142Z,4.05
2023-05-14T11:24:58.905Z,4.30
2023-05-14T11:26:00.819Z,3.33
2023-05-14T11:27:02.600Z,4.55
2023-05-14T11:28:05.302Z,4.78
2023-05-14T11:29:07.131Z,8.52
2023-05-14T11:30:22.182Z,5.75
2023-05-14T11:31:25.343Z,3.70
2023-05-14T11:32:27.524Z,4.00
2023-05-14T11:33:29.663Z,4.45
2023-05-14T11:34:31.835Z,3.70
2023-05-14T11:35:33.597Z,4.55
2023-05-14T11:36:37.195Z,5.63
2023-05-14T11:37:39.131Z,6.65
2023-05-14T11:38:50.568Z,5.80
2023-05-14T11:39:55.692Z,7.65
2023-05-14T11:41:00.053Z,5.70
2023-05-14T11:42:16.754Z,3.72
2023-05-14T11:43:18.833Z,3.90
2023-05-14T11:44:20.706Z,3.78
2023-05-14T11:45:27.662Z,16.88
2023-05-14T11:46:30.928Z,4.95
2023-05-14T11:47:32.947Z,3.47
2023-05-14T11:48:35.189Z,7.00
2023-05-14T11:49:37.952Z,3.28
2023-05-14T11:50:40.445Z,4.30
2023-05-14T11:51:42.216Z,3.80
2023-05-14T11:52:43.995Z,3.50
2023-05-14T11:53:46.482Z,4.82
2023-05-14T11:54:51.597Z,3.22
2023-05-14T11:55:55.005Z,3.35
2023-05-14T11:56:59.537Z,4.10
2023-05-14T11:58:01.530Z,3.95
2023-05-14T11:59:03.345Z,3.92
2023-05-14T12:00:13.417Z,4.32
2023-05-14T12:01:15.816Z,5.30
2023-05-14T12:02:19.805Z,4.80
2023-05-14T12:03:25.995Z,5.03
2023-05-14T12:04:29.441Z,7.18
2023-05-14T12:05:31.282Z,3.95
2023-05-14T12:06:33.193Z,4.32
2023-05-14T12:07:35.873Z,3.90
2023-05-14T12:08:37.724Z,5.15
2023-05-14T12:09:49.506Z,5.82
2023-05-14T12:10:53.602Z,4.50
2023-05-14T12:11:55.336Z,3.60
2023-05-14T12:12:57.100Z,3.92
2023-05-14T12:14:09.952Z,3.85
2023-05-14T12:15:14.680Z,5.10
2023-05-14T12:16:17.758Z,5.10
2023-05-14T12:17:23.129Z,3.70
2023-05-14T12:18:28.617Z,3.80
2023-05-14T12:19:30.820Z,3.28
2023-05-14T12:20:32.604Z,3.35
2023-05-14T12:21:35.019Z,3.10
2023-05-14T12:22:37.276Z,3.88
2023-05-14T12:23:39.672Z,4.35
2023-05-14T12:24:43.582Z,3.53
2023-05-14T12:25:54.070Z,3.78
2023-05-14T12:26:57.397Z,3.50
2023-05-14T12:27:59.110Z,9.82
2023-05-14T12:29:03.451Z,3.28
2023-05-14T12:31:13.112Z,3.33
2023-05-14T12:32:14.869Z,4.40
2023-05-14T12:33:16.630Z,4.60
2023-05-14T12:34:18.455Z,6.88
2023-05-14T12:35:22.880Z,3.78
2023-05-14T12:36:25.229Z,3.90
2023-05-14T12:37:30.058Z,9.48
2023-05-14T12:38:32.994Z,4.50
2023-05-14T12:39:35.005Z,4.18
2023-05-14T12:40:38.754Z,3.75
2023-05-14T12:41:42.503Z,6.20
2023-05-14T12:42:44.234Z,5.00
2023-05-14T12:43:49.552Z,3.70
2023-05-14T12:44:51.295Z,4.68
2023-05-14T12:45:53.022Z,4.05
2023-05-14T12:46:55.151Z,3.03
2023-05-14T12:47:56.979Z,3.60
2023-05-14T12:48:58.842Z,4.43
2023-05-14T12:50:00.630Z,3.53
2023-05-14T12:51:02.426Z,4.95
2023-05-14T12:52:25.726Z,7.40
2023-05-14T12:53:27.388Z,5.78
2023-05-14T12:54:29.141Z,5.47
2023-05-14T12:55:31.149Z,3.83
2023-05-14T12:56:32.956Z,5.68
2023-05-14T12:57:35.434Z,4.75
2023-05-14T12:58:38.039Z,5.05
2023-05-14T12:59:39.799Z,3.42
2023-05-14T13:00:42.098Z,4.43
2023-05-14T13:01:43.913Z,6.72
2023-05-14T13:02:45.901Z,9.77
2023-05-14T13:03:47.779Z,3.72
2023-05-14T13:04:49.531Z,3.90
2023-05-14T13:05:53.362Z,4.75
2023-05-14T13:06:55.325Z,3.50
2023-05-14T13:08:02.205Z,3.65
2023-05-14T13:09:04.169Z,4.60
2023-05-14T13:10:07.129Z,4.00
2023-05-14T13:11:08.873Z,3.38
2023-05-14T13:12:10.683Z,3.60
2023-05-14T13:13:12.941Z,4.97
2023-05-14T13:14:14.754Z,3.50
2023-05-14T13:15:16.765Z,3.67
2023-05-14T13:16:18.651Z,3.42
2023-05-14T13:17:20.770Z,10.80
2023-05-14T13:18:22.628Z,2.95
2023-05-14T13:19:24.443Z,3.53
2023-05-14T13:20:27.557Z,3.53
2023-05-14T13:21:29.349Z,3.92
2023-05-14T13:22:31.122Z,3.10
2023-05-14T13:23:32.870Z,3.95
2023-05-14T13:24:35.502Z,2.35
2023-05-14T13:25:37.531Z,3.22
2023-05-14T13:26:39.330Z,3.55
2023-05-14T13:27:41.290Z,2.75
2023-05-14T13:28:43.306Z,3.60
2023-05-14T13:29:45.054Z,4.30
2023-05-14T13:31:10.430Z,3.15
2023-05-14T13:32:12.259Z,6.70
2023-05-14T13:33:14.181Z,3.08
2023-05-14T13:34:16.351Z,4.80
2023-05-14T13:35:18.232Z,2.90
2023-05-14T13:36:20.166Z,4.40
2023-05-14T13:37:22.080Z,3.28
2023-05-14T13:38:24.029Z,3.53
2023-05-14T13:39:27.216Z,3.40
2023-05-14T13:40:29.212Z,5.85
2023-05-14T13:41:34.837Z,3.10
2023-05-14T13:42:39.579Z,3.45
2023-05-14T13:43:41.359Z,3.35
2023-05-14T13:44:43.209Z,3.50
2023-05-14T13:45:44.987Z,4.18
2023-05-14T13:46:46.833Z,2.92
2023-05-14T13:47:49.653Z,5.88
2023-05-14T13:48:53.145Z,3.13
2023-05-14T13:49:56.486Z,3.55
2023-05-14T13:50:58.391Z,2.90
2023-05-14T13:52:00.289Z,3.70
2023-05-14T13:53:02.053Z,3.45
2023-05-14T13:54:03.925Z,4.40
2023-05-14T13:55:06.956Z,3.58
2023-05-14T13:56:08.867Z,3.30
2023-05-14T13:57:10.888Z,10.80
2023-05-14T13:58:12.896Z,5.75
2023-05-14T13:59:15.194Z,6.65
2023-05-14T14:00:17.739Z,5.20
2023-05-14T14:01:19.556Z,5.35